Time;durP1;ratioP1;P1;durP2;ratioP2;P2;SDS_P1;SDS_P2;PMS_P1;PMS_P2;Temp;Humidity;BMP_temperature;BMP_pressure;BME280_temperature;BME280_humidity;BME280_pressure;Samples;Min_cycle;Max_cycle;Signal;HPM_P1;HPM_P2
2023/05/12 00:01:06;;;;;;;0.10;0.10;;;;;;;20.33;54.34;101042.09;5071888;28;20048;-44
2023/05/12 00:03:32;;;;;;;0.20;0.20;;;;;;;20.32;53.44;101043.22;5054720;28;20550;-46
2023/05/12 00:06:02;;;;;;;0.20;0.20;;;;;;;20.32;54.26;101046.00;5072089;28;20036;-45
2023/05/12 00:08:28;;;;;;;0.20;0.20;;;;;;;20.33;54.87;101031.88;5070918;28;20629;-45
2023/05/12 00:10:54;;;;;;;0.20;0.20;;;;;;;20.33;54.37;101039.34;5071867;28;20099;-46
2023/05/12 00:13:22;;;;;;;0.20;0.20;;;;;;;20.33;54.53;101037.41;5072163;28;20531;-43
2023/05/12 00:15:49;;;;;;;0.10;0.10;;;;;;;20.34;54.71;101032.72;5054025;28;20435;-44
2023/05/12 00:18:16;;;;;;;0.20;0.20;;;;;;;20.33;54.82;101029.09;5054018;28;20057;-44
2023/05/12 00:20:41;;;;;;;0.20;0.20;;;;;;;20.32;54.55;101030.22;5071458;28;20121;-44
2023/05/12 00:23:07;;;;;;;0.20;0.20;;;;;;;20.33;54.26;101022.75;5071748;28;20052;-45
2023/05/12 00:25:33;;;;;;;0.20;0.20;;;;;;;20.32;54.86;101024.69;5072100;28;20400;-47
2023/05/12 00:27:58;;;;;;;0.20;0.20;;;;;;;20.32;53.02;101029.41;5071954;28;20558;-45
2023/05/12 00:30:24;;;;;;;0.20;0.20;;;;;;;20.33;54.63;101028.28;5071401;28;20047;-44
2023/05/12 00:32:50;;;;;;;0.20;0.20;;;;;;;20.30;54.31;101024.16;5071870;28;20146;-43
2023/05/12 00:35:16;;;;;;;0.20;0.20;;;;;;;20.31;54.36;101020.28;5053749;28;20051;-48
2023/05/12 00:37:42;;;;;;;0.20;0.20;;;;;;;20.32;53.71;101018.34;5036879;28;20227;-46
2023/05/12 00:40:08;;;;;;;0.20;0.20;;;;;;;20.31;54.02;101025.81;5053271;28;20050;-45
2023/05/12 00:42:34;;;;;;;0.20;0.20;;;;;;;20.31;54.24;101020.28;5071523;28;20098;-47
2023/05/12 00:45:00;;;;;;;0.20;0.20;;;;;;;20.32;54.58;101026.63;5072098;28;20087;-45
2023/05/12 00:47:26;;;;;;;0.20;0.20;;;;;;;20.31;54.83;101014.75;5071765;28;20044;-44
2023/05/12 00:49:52;;;;;;;0.20;0.20;;;;;;;20.30;53.80;101013.94;5060943;28;20052;-46
2023/05/12 00:52:18;;;;;;;0.10;0.10;;;;;;;20.31;54.34;101014.75;5071906;28;20476;-44
2023/05/12 00:54:44;;;;;;;0.20;0.20;;;;;;;20.31;53.98;101011.97;5071633;28;20342;-47
2023/05/12 00:57:10;;;;;;;0.20;0.20;;;;;;;20.30;53.37;101004.81;5069909;28;20586;-44
2023/05/12 00:59:36;;;;;;;0.10;0.10;;;;;;;20.30;54.41;100999.28;5071314;28;20163;-44
2023/05/12 01:02:02;;;;;;;0.20;0.20;;;;;;;20.30;53.63;101002.03;5071956;28;20075;-47
2023/05/12 01:04:28;;;;;;;0.20;0.20;;;;;;;20.30;53.39;100996.50;5072121;28;20543;-46
2023/05/12 01:06:57;;;;;;;0.20;0.20;;;;;;;20.29;53.71;100995.69;5073670;28;20048;-46
2023/05/12 01:09:23;;;;;;;0.20;0.20;;;;;;;20.30;53.69;101004.81;5075161;28;20090;-44
2023/05/12 01:11:49;;;;;;;0.20;0.20;;;;;;;20.29;54.15;100995.69;5075186;28;20073;-43
2023/05/12 01:14:14;;;;;;;0.20;0.20;;;;;;;20.29;53.86;100992.06;5075207;28;20048;-43
2023/05/12 01:16:45;;;;;;;0.20;0.20;;;;;;;20.30;53.96;100988.22;5075200;28;20565;-47
2023/05/12 01:19:38;;;;;;;0.20;0.20;;;;;;;20.28;54.33;100988.47;5056655;28;20043;-45
2023/05/12 01:22:03;;;;;;;0.20;0.20;;;;;;;20.27;53.35;100986.84;5039962;28;20317;-44
2023/05/12 01:24:31;;;;;;;0.20;0.20;;;;;;;20.28;54.25;100991.25;5055035;28;20135;-46
2023/05/12 01:26:58;;;;;;;0.20;0.20;;;;;;;20.27;53.26;100984.06;5053973;28;20052;-45
2023/05/12 01:29:24;;;;;;;0.20;0.20;;;;;;;20.29;54.54;100990.16;5074631;28;20101;-44
2023/05/12 01:31:49;;;;;;;0.20;0.20;;;;;;;20.27;53.10;100984.06;5074978;28;20370;-45
2023/05/12 01:34:17;;;;;;;0.20;0.20;;;;;;;20.27;53.15;100986.84;5067192;28;20812;-45
2023/05/12 01:36:43;;;;;;;0.20;0.20;;;;;;;20.27;53.45;100978.53;5072775;28;20134;-46
2023/05/12 01:39:09;;;;;;;0.20;0.20;;;;;;;20.27;53.17;100986.84;5074457;28;20055;-44
2023/05/12 01:41:34;;;;;;;0.20;0.20;;;;;;;20.28;54.19;100974.66;5056140;28;20052;-44
2023/05/12 01:44:00;;;;;;;0.20;0.20;;;;;;;20.28;53.78;100980.19;5074042;28;20469;-44
2023/05/12 01:46:26;;;;;;;0.20;0.20;;;;;;;20.27;52.83;100984.06;5074077;28;20080;-44
2023/05/12 01:48:52;;;;;;;0.10;0.10;;;;;;;20.27;52.82;100983.25;5076504;28;20047;-43
2023/05/12 01:51:17;;;;;;;0.20;0.20;;;;;;;20.26;53.04;100984.38;5076940;28;20146;-45
2023/05/12 01:53:43;;;;;;;0.20;0.20;;;;;;;20.28;53.24;100993.19;5074317;28;20052;-46
2023/05/12 01:56:09;;;;;;;0.20;0.20;;;;;;;20.26;52.85;100996.25;5073954;28;20492;-44
2023/05/12 01:58:34;;;;;;;0.20;0.20;;;;;;;20.26;53.14;100995.44;5074583;28;20044;-47
2023/05/12 02:01:00;;;;;;;0.20;0.20;;;;;;;20.25;53.47;100994.59;5073552;28;20052;-46
2023/05/12 02:03:26;;;;;;;0.20;0.20;;;;;;;20.26;53.90;100987.94;5074387;28;20275;-45
2023/05/12 02:05:51;;;;;;;0.20;0.20;;;;;;;20.27;52.95;100975.78;5073915;28;20524;-45
2023/05/12 02:08:17;;;;;;;0.20;0.20;;;;;;;20.26;54.23;100952.00;5074512;28;20052;-47
2023/05/12 02:10:43;;;;;;;0.20;0.20;;;;;;;20.26;53.46;100946.47;5074158;28;20044;-44
2023/05/12 02:13:08;;;;;;;0.20;0.20;;;;;;;20.26;53.33;100965.84;5074298;28;20048;-46
2023/05/12 02:15:34;;;;;;;0.20;0.20;;;;;;;20.26;52.74;100973.31;5073863;28;20044;-47
2023/05/12 02:18:00;;;;;;;0.20;0.20;;;;;;;20.26;53.55;100973.31;5074174;28;20199;-43
2023/05/12 02:20:28;;;;;;;0.20;0.20;;;;;;;20.26;54.31;100970.53;5073600;28;20048;-46
2023/05/12 02:22:53;;;;;;;0.20;0.20;;;;;;;20.26;54.17;100963.06;5073588;28;20048;-47
2023/05/12 02:25:20;;;;;;;0.20;0.20;;;;;;;20.26;53.93;100954.78;5055449;28;20097;-46
2023/05/12 02:27:45;;;;;;;0.20;0.20;;;;;;;20.25;53.77;100953.13;5073616;28;20075;-44
2023/05/12 02:30:11;;;;;;;0.20;0.20;;;;;;;20.25;53.82;100955.88;5073797;28;20055;-45
2023/05/12 02:32:37;;;;;;;0.20;0.20;;;;;;;20.25;54.09;100947.59;5073323;28;20473;-46
2023/05/12 02:35:03;;;;;;;0.20;0.20;;;;;;;20.25;53.81;100941.22;5072752;28;20052;-46
2023/05/12 02:37:28;;;;;;;0.20;0.20;;;;;;;20.24;52.97;100943.16;5073220;28;20200;-47
2023/05/12 02:39:54;;;;;;;0.20;0.20;;;;;;;20.25;54.24;100947.59;5073528;28;20040;-47
2023/05/12 02:42:20;;;;;;;0.20;0.20;;;;;;;20.24;53.05;100945.09;5074130;28;20050;-45
2023/05/12 02:44:46;;;;;;;0.20;0.20;;;;;;;20.24;52.92;100968.03;5072160;28;20094;-46
2023/05/12 02:47:11;;;;;;;0.20;0.20;;;;;;;20.25;52.99;100977.16;5072898;28;20576;-43
2023/05/12 02:49:37;;;;;;;0.20;0.20;;;;;;;20.24;53.52;100970.81;5072832;28;20109;-46
2023/05/12 02:52:03;;;;;;;0.20;0.20;;;;;;;20.24;53.76;100964.44;5073356;28;20055;-43
2023/05/12 02:54:28;;;;;;;0.20;0.20;;;;;;;20.25;53.93;100969.72;5073227;28;20066;-45
2023/05/12 02:56:56;;;;;;;0.20;0.20;;;;;;;20.24;52.70;100976.34;5073059;28;20048;-44
2023/05/12 02:59:22;;;;;;;0.20;0.20;;;;;;;20.24;52.90;100968.03;5073123;28;20047;-46
2023/05/12 03:01:48;;;;;;;0.20;0.20;;;;;;;20.25;53.92;100963.34;5073597;28;20488;-45
2023/05/12 03:04:14;;;;;;;0.20;0.20;;;;;;;20.23;53.15;100968.34;5055479;28;20047;-47
2023/05/12 03:06:39;;;;;;;0.20;0.20;;;;;;;20.25;52.97;100971.63;5072594;28;20051;-45
2023/05/12 03:09:05;;;;;;;0.20;0.20;;;;;;;20.24;53.23;100969.97;5073315;28;20056;-44
2023/05/12 03:11:31;;;;;;;0.20;0.20;;;;;;;20.23;53.33;100974.69;5073084;28;20044;-44
2023/05/12 03:13:56;;;;;;;0.20;0.20;;;;;;;20.22;53.13;100975.00;5073608;28;20047;-45
2023/05/12 03:16:22;;;;;;;0.20;0.20;;;;;;;20.23;53.34;100974.69;5072342;28;20054;-45
2023/05/12 03:18:48;;;;;;;0.10;0.10;;;;;;;20.22;52.95;100972.22;5072900;28;20052;-44
2023/05/12 03:21:13;;;;;;;0.20;0.20;;;;;;;20.24;53.01;100975.50;5073217;28;20484;-45
2023/05/12 03:23:39;;;;;;;0.20;0.20;;;;;;;20.23;53.28;100982.97;5072998;28;20040;-43
2023/05/12 03:26:05;;;;;;;0.20;0.20;;;;;;;20.23;53.70;100973.88;5072260;28;20294;-47
2023/05/12 03:28:31;;;;;;;0.20;0.20;;;;;;;20.24;53.50;100972.75;5072285;28;20485;-45
2023/05/12 03:30:56;;;;;;;0.20;0.20;;;;;;;20.23;54.18;100971.94;5072237;28;20223;-46
2023/05/12 03:33:22;;;;;;;0.20;0.20;;;;;;;20.22;52.80;100969.47;5072523;28;20071;-43
2023/05/12 03:35:48;;;;;;;0.20;0.20;;;;;;;20.22;53.36;100975.81;5057570;28;20329;-43
2023/05/12 03:38:13;;;;;;;0.20;0.20;;;;;;;20.22;53.77;100969.47;5072815;28;20515;-44
2023/05/12 03:40:39;;;;;;;0.20;0.20;;;;;;;20.23;53.05;100973.88;5075641;28;20443;-44
2023/05/12 03:43:05;;;;;;;0.20;0.20;;;;;;;20.23;53.77;100976.63;5073198;28;20044;-45
2023/05/12 03:45:30;;;;;;;0.20;0.20;;;;;;;20.21;52.68;100971.41;5072028;28;20100;-47
2023/05/12 03:47:56;;;;;;;0.20;0.20;;;;;;;20.23;54.03;100976.63;5072547;28;20152;-43
2023/05/12 03:50:22;;;;;;;0.20;0.20;;;;;;;20.21;52.95;100976.94;5072293;28;20052;-45
2023/05/12 03:52:48;;;;;;;0.20;0.20;;;;;;;20.21;52.82;100976.94;5073362;28;20409;-43
2023/05/12 03:55:13;;;;;;;0.20;0.20;;;;;;;20.21;53.10;100976.09;5054919;28;20044;-45
2023/05/12 03:57:39;;;;;;;0.20;0.20;;;;;;;20.21;53.22;100982.47;5071833;28;20036;-48
2023/05/12 04:00:06;;;;;;;0.20;0.20;;;;;;;20.21;52.82;100988.00;5072382;28;20563;-44
2023/05/12 04:02:31;;;;;;;0.20;0.20;;;;;;;20.20;52.84;100983.56;5038265;28;20051;-45
2023/05/12 04:04:57;;;;;;;0.20;0.20;;;;;;;20.20;52.51;100991.84;5073564;28;20048;-43
2023/05/12 04:07:23;;;;;;;0.20;0.20;;;;;;;20.21;53.56;100992.69;5071774;28;20044;-45
2023/05/12 04:09:48;;;;;;;0.20;0.20;;;;;;;20.20;53.34;100986.31;5072314;28;20054;-44
2023/05/12 04:12:15;;;;;;;0.20;0.20;;;;;;;20.21;53.80;100992.69;5072494;28;20448;-44
2023/05/12 04:14:40;;;;;;;0.20;0.20;;;;;;;20.21;54.09;100996.28;5073410;28;20040;-44
2023/05/12 04:17:08;;;;;;;1.25;0.25;;;;;;;20.21;53.28;100993.53;5071763;28;20040;-44
2023/05/12 04:19:34;;;;;;;0.20;0.20;;;;;;;20.21;53.00;100995.47;5072463;28;20054;-45
2023/05/12 04:22:00;;;;;;;0.20;0.20;;;;;;;20.20;53.86;100997.38;5072008;28;20055;-44
2023/05/12 04:24:26;;;;;;;0.20;0.20;;;;;;;20.21;53.88;101001.00;5073340;28;20044;-47
2023/05/12 04:26:52;;;;;;;0.20;0.20;;;;;;;20.20;52.76;101002.09;5072007;28;20055;-44
2023/05/12 04:29:17;;;;;;;0.20;0.20;;;;;;;20.21;53.72;101003.75;5072173;28;20052;-44
2023/05/12 04:31:43;;;;;;;0.20;0.20;;;;;;;20.20;53.70;101004.84;5072086;28;20512;-46
2023/05/12 04:34:09;;;;;;;0.20;0.20;;;;;;;20.21;53.93;101009.28;5065816;28;20144;-43
2023/05/12 04:36:35;;;;;;;0.20;0.20;;;;;;;20.20;53.12;101013.97;5082024;28;20466;-48
2023/05/12 04:39:00;;;;;;;0.20;0.20;;;;;;;20.20;52.77;101008.44;5072275;28;20428;-46
2023/05/12 04:41:26;;;;;;;0.20;0.20;;;;;;;20.20;52.86;101018.69;5072911;28;20089;-45
2023/05/12 04:43:52;;;;;;;0.20;0.20;;;;;;;20.20;52.78;101016.72;5075981;28;20101;-47
2023/05/12 04:46:20;;;;;;;0.20;0.20;;;;;;;20.19;52.55;101019.78;5075262;28;20051;-44
2023/05/12 04:48:46;;;;;;;0.20;0.20;;;;;;;20.20;53.14;101024.19;5064537;28;20195;-43
2023/05/12 04:51:12;;;;;;;0.20;0.20;;;;;;;20.20;53.82;101027.78;5064311;28;20328;-45
2023/05/12 04:53:37;;;;;;;0.20;0.20;;;;;;;20.19;54.09;101030.84;5069004;28;20044;-47
2023/05/12 04:56:03;;;;;;;0.20;0.20;;;;;;;20.20;54.00;101036.09;5074992;28;20346;-43
2023/05/12 04:58:29;;;;;;;0.20;0.20;;;;;;;20.19;54.05;101037.22;5075090;28;20171;-45
2023/05/12 05:00:55;;;;;;;0.20;0.20;;;;;;;20.21;53.63;101048.00;5071212;28;20097;-44
2023/05/12 05:03:21;;;;;;;0.30;0.30;;;;;;;20.20;54.06;101052.69;5061735;28;20053;-45
2023/05/12 05:05:47;;;;;;;0.20;0.20;;;;;;;20.19;54.01;101053.78;5047912;28;20397;-44
2023/05/12 05:08:13;;;;;;;0.20;0.20;;;;;;;20.19;53.95;101058.50;5072260;28;20483;-47
2023/05/12 05:10:39;;;;;;;0.20;0.20;;;;;;;20.19;53.49;101067.63;5066759;28;20555;-43
2023/05/12 05:13:04;;;;;;;0.20;0.20;;;;;;;20.18;53.53;101062.38;5068821;28;20052;-45
2023/05/12 05:15:30;;;;;;;0.20;0.20;;;;;;;20.18;52.68;101071.50;5073643;28;20071;-44
2023/05/12 05:17:56;;;;;;;0.20;0.20;;;;;;;20.19;53.73;101069.56;5074100;28;20036;-44
2023/05/12 05:20:22;;;;;;;0.20;0.20;;;;;;;20.18;52.49;101081.75;5067586;28;20042;-43
2023/05/12 05:22:54;;;;;;;0.20;0.20;;;;;;;20.18;53.58;101074.28;5068993;28;20040;-45
2023/05/12 05:25:20;;;;;;;0.20;0.20;;;;;;;20.18;53.38;101082.56;5074819;28;20145;-44
2023/05/12 05:27:45;;;;;;;0.20;0.20;;;;;;;20.19;53.60;101080.63;5073022;28;20217;-45
2023/05/12 05:30:11;;;;;;;0.20;0.20;;;;;;;20.18;53.17;101082.56;5067653;28;20044;-44
2023/05/12 05:32:39;;;;;;;0.20;0.20;;;;;;;20.20;52.82;101096.09;5061362;28;20048;-45
2023/05/12 05:35:06;;;;;;;0.10;0.10;;;;;;;20.18;52.81;101090.88;5066132;28;20048;-44
2023/05/12 05:37:32;;;;;;;0.20;0.20;;;;;;;20.18;52.85;101092.81;5063734;28;20067;-45
2023/05/12 05:39:58;;;;;;;0.20;0.20;;;;;;;20.18;53.03;101093.63;5069774;28;20911;-43
2023/05/12 05:42:23;;;;;;;0.22;0.22;;;;;;;20.08;54.75;101092.84;5059021;28;20411;-42
2023/05/12 05:44:49;;;;;;;0.20;0.20;;;;;;;19.89;55.31;101093.47;5068662;28;20092;-46
2023/05/12 05:47:15;;;;;;;0.20;0.20;;;;;;;20.10;54.44;101096.16;5067592;28;20046;-44
2023/05/12 05:49:41;;;;;;;0.20;0.20;;;;;;;20.15;53.61;101093.38;5066013;28;20444;-44
2023/05/12 05:52:06;;;;;;;0.20;0.20;;;;;;;20.16;53.31;101098.59;5062052;28;20059;-44
2023/05/12 05:54:32;;;;;;;0.20;0.20;;;;;;;20.19;54.47;101108.28;5061188;28;20540;-45
2023/05/12 05:57:00;;;;;;;0.20;0.20;;;;;;;20.19;53.84;101116.56;5068867;28;20040;-44
2023/05/12 05:59:26;;;;;;;0.20;0.20;;;;;;;20.20;54.13;101119.03;5066456;28;20463;-44
2023/05/12 06:01:52;;;;;;;0.20;0.20;;;;;;;20.21;53.96;101122.66;5059127;28;20492;-42
2023/05/12 06:04:18;;;;;;;0.20;0.20;;;;;;;20.21;54.12;101126.25;5057972;28;20040;-44
2023/05/12 06:06:43;;;;;;;0.20;0.20;;;;;;;20.21;53.90;101130.97;5054056;28;20583;-45
2023/05/12 06:09:11;;;;;;;0.20;0.20;;;;;;;20.22;53.69;101138.13;5065452;28;20052;-44
2023/05/12 06:11:38;;;;;;;0.20;0.20;;;;;;;20.24;54.23;101135.91;5056220;28;20079;-45
2023/05/12 06:14:04;;;;;;;0.20;0.20;;;;;;;20.24;54.17;101144.19;5043930;28;20076;-43
2023/05/12 06:16:29;;;;;;;0.30;0.30;;;;;;;20.25;53.92;101143.09;5047209;28;20048;-45
2023/05/12 06:18:55;;;;;;;0.20;0.20;;;;;;;20.25;53.92;101143.94;5070193;28;20419;-45
2023/05/12 06:21:21;;;;;;;0.20;0.20;;;;;;;20.23;54.42;101148.09;5067021;28;20266;-41
2023/05/12 06:23:46;;;;;;;0.20;0.20;;;;;;;20.00;55.88;101153.16;5065604;28;20547;-45
2023/05/12 06:26:12;;;;;;;0.20;0.20;;;;;;;20.19;55.13;101153.34;5062265;28;20067;-45
2023/05/12 06:28:38;;;;;;;0.20;0.20;;;;;;;20.24;55.12;101150.56;5059962;28;20079;-45
2023/05/12 06:31:07;;;;;;;0.20;0.20;;;;;;;20.25;54.86;101152.22;5066971;28;20044;-44
2023/05/12 06:33:33;;;;;;;0.20;0.20;;;;;;;20.25;54.51;101155.00;5048506;28;20048;-43
2023/05/12 06:35:59;;;;;;;0.20;0.20;;;;;;;20.25;54.86;101154.16;5057651;28;20353;-44
2023/05/12 06:38:24;;;;;;;0.20;0.20;;;;;;;20.27;54.51;101149.19;5060080;28;20134;-44
2023/05/12 06:40:50;;;;;;;0.20;0.20;;;;;;;20.27;54.42;101154.72;5056778;28;20048;-43
2023/05/12 06:43:16;;;;;;;0.20;0.20;;;;;;;20.27;54.35;101161.06;5055113;28;20054;-43
2023/05/12 06:45:42;;;;;;;0.20;0.20;;;;;;;20.28;54.19;101165.47;5057897;28;20056;-44
2023/05/12 06:48:08;;;;;;;0.20;0.20;;;;;;;20.28;54.10;101159.13;5032721;28;20453;-43
2023/05/12 06:50:33;;;;;;;0.20;0.20;;;;;;;20.28;54.07;101159.94;5050273;28;20858;-45
2023/05/12 06:52:59;;;;;;;0.20;0.20;;;;;;;20.29;53.83;101161.63;5035907;28;20056;-45
2023/05/12 06:55:25;;;;;;;0.28;0.28;;;;;;;20.30;53.96;101165.22;5049318;28;20211;-43
2023/05/12 06:57:54;;;;;;;0.20;0.20;;;;;;;20.29;53.77;101172.69;5052168;28;20207;-44
2023/05/12 07:00:22;;;;;;;0.20;0.20;;;;;;;20.30;53.76;101179.88;5046367;28;20053;-43
2023/05/12 07:02:48;;;;;;;0.20;0.20;;;;;;;20.30;54.05;101177.09;5039095;28;20267;-43
2023/05/12 07:05:14;;;;;;;0.20;0.20;;;;;;;20.32;53.84;101187.03;5042555;28;20772;-43
2023/05/12 07:07:40;;;;;;;0.20;0.20;;;;;;;20.31;53.84;101180.69;5038105;28;20054;-44
2023/05/12 07:10:06;;;;;;;0.20;0.20;;;;;;;20.32;54.00;101192.56;5045767;28;20258;-43
2023/05/12 07:12:32;;;;;;;0.20;0.20;;;;;;;20.30;53.90;101184.56;5025491;28;21623;-44
2023/05/12 07:14:58;;;;;;;0.20;0.20;;;;;;;20.30;53.83;101184.56;5042330;28;20271;-45
2023/05/12 07:17:23;;;;;;;0.20;0.20;;;;;;;20.30;53.97;101193.69;5057649;28;20412;-44
2023/05/12 07:19:49;;;;;;;0.20;0.20;;;;;;;20.30;54.11;101177.09;5044696;28;20044;-44
2023/05/12 07:22:15;;;;;;;0.20;0.20;;;;;;;20.30;53.95;101190.94;5053814;28;20040;-43
2023/05/12 07:24:41;;;;;;;0.20;0.20;;;;;;;20.29;54.04;101196.72;5055120;28;20401;-45
2023/05/12 07:27:07;;;;;;;0.20;0.20;;;;;;;20.30;54.05;101195.63;5058888;28;20234;-44
2023/05/12 07:29:32;;;;;;;0.20;0.20;;;;;;;20.32;53.88;101196.16;5056451;28;20044;-44
2023/05/12 07:31:58;;;;;;;0.20;0.20;;;;;;;20.32;53.79;101187.88;5039304;28;20375;-45
2023/05/12 07:34:24;;;;;;;0.20;0.20;;;;;;;20.33;53.92;101192.28;5063714;28;20187;-45
2023/05/12 07:36:50;;;;;;;0.20;0.20;;;;;;;20.34;53.78;101201.44;5063932;28;20137;-44
2023/05/12 07:39:22;;;;;;;0.20;0.20;;;;;;;20.34;53.59;101204.22;5051304;28;20455;-45
2023/05/12 07:41:49;;;;;;;0.20;0.20;;;;;;;20.33;53.58;101208.88;5057034;28;20793;-45
2023/05/12 07:44:15;;;;;;;0.20;0.20;;;;;;;20.32;53.44;101204.47;5064561;28;20052;-44
2023/05/12 07:46:40;;;;;;;0.20;0.20;;;;;;;20.30;53.97;101202.00;5059323;28;20377;-44
2023/05/12 07:49:06;;;;;;;0.20;0.20;;;;;;;20.33;54.13;101202.53;5061247;28;20405;-45
2023/05/12 07:51:32;;;;;;;0.20;0.20;;;;;;;20.31;54.04;101202.81;5059046;28;20052;-44
2023/05/12 07:53:58;;;;;;;0.20;0.20;;;;;;;20.32;53.97;101206.41;5049070;28;20055;-44
2023/05/12 07:56:23;;;;;;;0.20;0.20;;;;;;;20.33;53.87;101210.81;5050075;28;20413;-43
2023/05/12 07:58:50;;;;;;;0.20;0.20;;;;;;;20.33;53.70;101216.34;5028299;28;20418;-43
2023/05/12 08:01:16;;;;;;;0.20;0.20;;;;;;;20.34;53.84;101218.03;5049339;28;20156;-44
2023/05/12 08:03:41;;;;;;;0.20;0.20;;;;;;;20.33;53.69;101210.81;5026038;28;20709;-45
2023/05/12 08:06:07;;;;;;;0.20;0.20;;;;;;;20.24;55.05;101210.56;5035139;28;21084;-42
2023/05/12 08:08:33;;;;;;;0.20;0.20;;;;;;;20.33;54.11;101219.13;5045251;28;20044;-43
2023/05/12 08:10:59;;;;;;;0.20;0.20;;;;;;;20.36;54.38;101215.81;5043395;28;20075;-44
2023/05/12 08:13:25;;;;;;;0.20;0.20;;;;;;;20.38;54.32;101221.88;5056102;28;20055;-42
2023/05/12 08:15:51;;;;;;;0.20;0.20;;;;;;;20.37;54.19;101226.56;5061559;28;20612;-44
2023/05/12 08:18:17;;;;;;;0.20;0.20;;;;;;;20.36;54.86;101221.34;5056055;28;20147;-44
2023/05/12 08:20:42;;;;;;;0.20;0.20;;;;;;;20.39;54.17;101227.13;5055654;28;20518;-43
2023/05/12 08:23:08;;;;;;;0.20;0.20;;;;;;;20.41;54.39;101226.84;5061221;28;20040;-45
2023/05/12 08:25:35;;;;;;;0.20;0.20;;;;;;;20.40;54.48;101239.03;5061429;28;20044;-46
2023/05/12 08:28:02;;;;;;;0.17;0.17;;;;;;;20.42;54.32;101236.78;5060396;28;20040;-48
2023/05/12 08:30:28;;;;;;;0.20;0.20;;;;;;;20.41;54.53;101244.25;5055650;28;20083;-46
2023/05/12 08:32:54;;;;;;;0.20;0.20;;;;;;;20.35;55.48;101248.16;5027813;28;21775;-44
2023/05/12 08:35:19;;;;;;;0.20;0.20;;;;;;;20.40;54.66;101248.16;5022488;28;20573;-43
2023/05/12 08:37:45;;;;;;;0.20;0.20;;;;;;;20.43;54.31;101247.59;5041532;28;20500;-43
2023/05/12 08:40:22;;;;;;;0.20;0.20;;;;;;;20.44;54.01;101256.72;5042255;28;20049;-43
2023/05/12 08:42:54;;;;;;;0.20;0.20;;;;;;;20.42;54.36;101254.25;5030671;28;20121;-42
2023/05/12 08:45:21;;;;;;;0.20;0.20;;;;;;;20.42;54.24;101254.25;5040000;28;20048;-42
2023/05/12 08:47:49;;;;;;;0.20;0.20;;;;;;;20.40;53.94;101258.38;5074235;28;20424;-42
2023/05/12 08:50:16;;;;;;;0.20;0.20;;;;;;;20.40;53.71;101253.69;5064317;28;20048;-43
2023/05/12 08:52:42;;;;;;;0.20;0.20;;;;;;;20.40;53.75;101253.69;5070543;28;20542;-43
2023/05/12 08:55:08;;;;;;;0.20;0.20;;;;;;;20.41;53.64;101260.03;5062053;28;20788;-42
2023/05/12 08:57:35;;;;;;;0.20;0.20;;;;;;;20.40;53.64;101261.16;5052177;28;20250;-43
2023/05/12 09:00:04;;;;;;;0.20;0.20;;;;;;;20.39;53.69;101265.88;5066538;28;20177;-43
2023/05/12 09:02:30;;;;;;;0.20;0.20;;;;;;;20.41;53.46;101271.09;5061313;28;20122;-44
2023/05/12 09:05:14;;;;;;;0.20;0.20;;;;;;;20.41;53.66;101265.56;5057388;28;20075;-45
2023/05/12 09:07:42;;;;;;;0.20;0.20;;;;;;;20.25;52.92;101262.00;5073023;28;20052;-43
2023/05/12 09:10:13;;;;;;;0.20;0.20;;;;;;;20.23;53.42;101270.59;5053414;28;20071;-44
2023/05/12 09:13:04;;;;;;;0.20;0.20;;;;;;;20.36;53.05;101265.59;5050507;28;20106;-45
2023/05/12 09:15:34;;;;;;;0.20;0.20;;;;;;;20.38;52.82;101271.66;5069510;28;20511;-44
2023/05/12 09:18:00;;;;;;;0.20;0.20;;;;;;;20.38;52.72;101271.66;5047425;28;20089;-45
2023/05/12 09:20:26;;;;;;;0.20;0.20;;;;;;;20.38;53.19;101268.88;5063179;28;20408;-45
2023/05/12 09:22:57;;;;;;;0.20;0.20;;;;;;;20.40;52.85;101272.22;5062895;28;20133;-43
2023/05/12 09:25:23;;;;;;;0.20;0.20;;;;;;;20.42;53.07;101275.53;5065322;28;20048;-43
2023/05/12 09:27:53;;;;;;;0.20;0.20;;;;;;;20.40;53.16;101273.03;5044396;28;20054;-43
2023/05/12 09:30:28;;;;;;;0.20;0.20;;;;;;;20.38;52.92;101272.50;5065339;28;20481;-44
2023/05/12 09:33:05;;;;;;;0.20;0.20;;;;;;;20.40;53.30;101273.03;5062171;28;20044;-43
2023/05/12 09:35:30;;;;;;;0.30;0.30;;;;;;;20.41;52.92;101273.88;5020854;28;20307;-43
2023/05/12 09:38:04;;;;;;;0.20;0.20;;;;;;;20.43;52.90;101278.03;5051237;28;20134;-43
2023/05/12 09:40:30;;;;;;;0.20;0.20;;;;;;;20.43;53.05;101279.97;5046248;28;20070;-43
2023/05/12 09:42:56;;;;;;;0.20;0.20;;;;;;;20.42;52.90;101275.53;5053759;28;20270;-44
2023/05/12 09:45:23;;;;;;;0.20;0.20;;;;;;;20.42;52.56;101283.81;5059393;28;20051;-46
2023/05/12 09:47:49;;;;;;;0.20;0.20;;;;;;;20.41;52.40;101282.16;5065072;28;20043;-44
2023/05/12 09:50:14;;;;;;;0.20;0.20;;;;;;;20.42;52.68;101279.16;5058244;28;20693;-45
2023/05/12 09:52:41;;;;;;;0.20;0.20;;;;;;;20.43;52.78;101286.31;5063728;28;21470;-43
2023/05/12 09:55:09;;;;;;;0.20;0.20;;;;;;;20.44;52.58;101287.16;5067999;28;20036;-43
2023/05/12 09:57:40;;;;;;;0.20;0.20;;;;;;;20.46;52.87;101282.97;5067986;28;20130;-43
2023/05/12 10:00:10;;;;;;;0.20;0.20;;;;;;;20.46;52.85;101284.91;5054425;28;20080;-43
2023/05/12 10:02:55;;;;;;;0.20;0.20;;;;;;;20.46;52.74;101284.91;5052554;28;20459;-43
2023/05/12 10:05:21;;;;;;;0.20;0.20;;;;;;;20.46;52.84;101282.97;5062741;28;20473;-43
2023/05/12 10:07:49;;;;;;;0.20;0.20;;;;;;;20.46;52.44;101282.16;5051648;28;20036;-44
2023/05/12 10:10:17;;;;;;;0.10;0.10;;;;;;;20.46;52.52;101280.22;5048376;28;20067;-44
2023/05/12 10:12:43;;;;;;;0.20;0.20;;;;;;;20.47;52.76;101276.34;5053205;28;20413;-44
2023/05/12 10:15:10;;;;;;;0.20;0.20;;;;;;;20.46;52.41;101280.22;5068351;28;20543;-45
2023/05/12 10:17:36;;;;;;;0.20;0.20;;;;;;;20.44;52.52;101281.63;5053268;28;20552;-43
2023/05/12 10:20:05;;;;;;;0.20;0.20;;;;;;;20.46;52.66;101288.50;5049666;28;20052;-44
2023/05/12 10:22:37;;;;;;;0.20;0.20;;;;;;;20.46;52.51;101280.22;5074235;28;20047;-45
2023/05/12 10:25:05;;;;;;;0.20;0.20;;;;;;;20.44;52.38;101279.69;5051545;28;20047;-44
2023/05/12 10:27:32;;;;;;;0.20;0.20;;;;;;;20.46;52.36;101287.69;5069632;28;20056;-46
2023/05/12 10:29:58;;;;;;;0.20;0.20;;;;;;;20.46;52.50;101277.44;5049862;28;20388;-44
2023/05/12 10:32:25;;;;;;;0.20;0.20;;;;;;;20.47;52.32;101283.84;5061320;28;20058;-43
2023/05/12 10:34:51;;;;;;;0.20;0.20;;;;;;;20.46;52.24;101280.22;5074039;28;20051;-44
2023/05/12 10:37:17;;;;;;;0.20;0.20;;;;;;;20.45;52.30;101278.56;5065235;28;20657;-44
2023/05/12 10:39:49;;;;;;;0.20;0.20;;;;;;;20.45;52.10;101272.19;5069201;28;20052;-45
2023/05/12 10:42:19;;;;;;;0.20;0.20;;;;;;;20.46;52.38;101279.38;5062105;28;20040;-45
2023/05/12 10:44:50;;;;;;;0.20;0.20;;;;;;;20.46;52.48;101276.63;5034918;28;20554;-44
2023/05/12 10:47:16;;;;;;;0.20;0.20;;;;;;;20.47;52.27;101281.06;5031937;28;20493;-45
2023/05/12 10:49:42;;;;;;;0.20;0.20;;;;;;;20.46;52.35;101279.38;5058321;28;20101;-45
2023/05/12 10:52:10;;;;;;;0.20;0.20;;;;;;;20.45;52.33;101280.50;5055771;28;20044;-45
2023/05/12 10:54:39;;;;;;;0.10;0.10;;;;;;;20.46;52.28;101276.63;5039915;28;20054;-44
2023/05/12 10:57:12;;;;;;;0.10;0.10;;;;;;;20.46;52.34;101271.09;5059946;28;20788;-43
2023/05/12 10:59:51;;;;;;;0.10;0.10;;;;;;;20.47;52.24;101275.53;5046238;28;20338;-46
2023/05/12 11:02:22;;;;;;;0.20;0.20;;;;;;;20.47;52.42;101267.22;5043586;28;20040;-44
2023/05/12 11:04:51;;;;;;;0.20;0.20;;;;;;;20.45;52.11;101264.72;5062696;28;20071;-44
2023/05/12 11:07:21;;;;;;;0.20;0.20;;;;;;;20.45;51.78;101263.91;5042065;28;20349;-47
2023/05/12 11:09:48;;;;;;;0.20;0.20;;;;;;;20.45;52.27;101272.19;5049467;28;20054;-44
2023/05/12 11:12:25;;;;;;;0.20;0.20;;;;;;;20.45;52.44;101267.50;5055716;28;20039;-45
2023/05/12 11:14:51;;;;;;;0.10;0.10;;;;;;;20.45;52.44;101269.44;5062907;28;20112;-44
2023/05/12 11:17:17;;;;;;;0.20;0.20;;;;;;;20.44;52.26;101260.31;5067543;28;20093;-43
2023/05/12 11:19:46;;;;;;;0.20;0.20;;;;;;;20.44;52.47;101265.03;5062276;28;20044;-44
2023/05/12 11:22:12;;;;;;;0.20;0.20;;;;;;;20.45;52.50;101264.72;5069856;28;20413;-44